Airfield :
LOGIN :

Register | Disclaimer

   EN    FR    IT 

 










Legend :    VFR   Marginal VFR   IFR   Intensive IFR   Very Intensive IFR
Visi :
Ceiling :
>= 8 km
>= 3000ft
5 to 8 km
1000 to 3000 ft
1500m to 5 km
500 to 1000 ft
800 to 1500m
200 to 500 ft
< 800m
< 200 ft
Symbols :   Thunderstorms  Fog  Heavy snow  Heavy precipitations  Wind > 20 kt
SIGMETs :     Misc.  Thunderstorms  Icing  Turbulence  Mountain Waves  Volcanic Ashes






- Airport Elevation : 302 ft
- IATA code : CGN


EDDK - Cologne Bonn

CURRENT METAR :
  • 221120Z 03003KT 350V070 9999 -RA FEW018 BKN025 16/12 Q1015 NOSIG

EXPIRED METARs :
  • 221050Z 02008KT 9999 -RA SCT021 BKN026 16/11 Q1015 NOSIG
  • 221020Z 05008KT 9999 FEW020 BKN024 16/11 Q1015 NOSIG
  • 220950Z 04008KT 020V080 9999 FEW019 BKN023 17/11 Q1015 NOSIG
  • 220920Z 06009KT 030V100 9999 FEW019 BKN023 16/10 Q1015 NOSIG
  • 220850Z 03009KT 360V060 9999 FEW019 BKN022 16/11 Q1015 NOSIG

TAF TAF EDDK
Valid from the 22 at 06:00 until the 23 at 12:00 UTC


220500Z 2206/2312 03006KT 9999 BKN020
PROB30
TEMPO 2206/2208 SHRA BKN014TCU
BECMG 2215/2218 33006KT
PROB30
TEMPO 2215/2219 SHRA BKN040CB



MET'MAP, your aeronautical weather chart ! - Copyright ORBIFLY December 2007 - Disclaimer

ORBIFLY MET'MAP TEAM :

Programming & Development : Alexandra Zaïnal
Concept & original design : Baudouin d'Aumeries
Assistance for programming : Marc-Olivier Méhu
Technical & hardware support : Manuel Goepfert

Contact : metmap@orbifly.com




SOURCES & CREDITS :

   NOAA